Time;durP1;ratioP1;P1;durP2;ratioP2;P2;SDS_P1;SDS_P2;PMS_P1;PMS_P2;Temp;Humidity;BMP_temperature;BMP_pressure;BME280_temperature;BME280_humidity;BME280_pressure;Samples;Min_cycle;Max_cycle;Signal;HPM_P1;HPM_P2
2023/07/29 00:03:51;;;;;;;3.28;2.28;;;21.40;74.80;;;;;;10370025;28;20325;-53
2023/07/29 00:08:52;;;;;;;3.60;2.35;;;21.40;74.80;;;;;;10367440;28;20032;-52
2023/07/29 00:13:53;;;;;;;3.28;2.13;;;21.40;74.80;;;;;;10332858;28;20165;-52
2023/07/29 00:18:53;;;;;;;2.60;2.00;;;21.40;74.80;;;;;;10369612;28;20096;-51
2023/07/29 00:23:57;;;;;;;3.15;2.17;;;21.40;74.80;;;;;;10368537;28;20022;-52
2023/07/29 00:28:58;;;;;;;3.78;2.47;;;21.40;74.70;;;;;;10369510;28;20105;-54
2023/07/29 00:33:59;;;;;;;2.72;2.35;;;21.40;74.70;;;;;;10383921;28;20068;-50
2023/07/29 00:38:59;;;;;;;4.15;2.22;;;21.40;75.30;;;;;;10367308;28;20354;-53
2023/07/29 00:44:00;;;;;;;3.92;2.30;;;21.40;74.60;;;;;;10368288;28;20122;-50
2023/07/29 00:49:01;;;;;;;2.58;1.83;;;21.40;74.70;;;;;;10368214;28;20124;-53
2023/07/29 00:54:02;;;;;;;2.30;1.90;;;21.40;74.60;;;;;;10365955;28;20036;-52
2023/07/29 00:59:04;;;;;;;2.67;2.20;;;21.40;74.50;;;;;;10327841;28;20018;-53
2023/07/29 01:04:04;;;;;;;2.97;2.20;;;21.30;74.40;;;;;;10327913;28;20561;-54
2023/07/29 01:09:13;;;;;;;3.95;2.28;;;21.40;74.50;;;;;;10340098;28;20080;-53
2023/07/29 01:14:57;;;;;;;2.63;2.13;;;21.40;74.50;;;;;;10332416;28;20030;-53
2023/07/29 01:20:11;;;;;;;2.92;2.22;;;21.40;74.50;;;;;;10367359;28;20557;-53
2023/07/29 01:25:11;;;;;;;3.00;2.20;;;21.30;74.40;;;;;;10367314;28;20046;-53
2023/07/29 01:30:12;;;;;;;2.92;1.98;;;21.30;74.40;;;;;;10366518;28;20034;-53
2023/07/29 01:35:38;;;;;;;2.40;1.70;;;21.30;74.40;;;;;;10359464;28;20062;-54
2023/07/29 01:40:40;;;;;;;2.53;1.92;;;21.30;74.40;;;;;;10324518;28;20402;-53
2023/07/29 01:45:41;;;;;;;2.97;2.03;;;21.30;74.40;;;;;;10326209;28;20492;-53
2023/07/29 01:50:42;;;;;;;3.08;1.95;;;21.30;74.30;;;;;;10325290;28;20025;-53
2023/07/29 01:55:44;;;;;;;2.78;2.13;;;21.30;74.50;;;;;;10365246;28;20028;-52
2023/07/29 02:00:45;;;;;;;2.88;1.88;;;21.30;74.50;;;;;;10365901;28;20101;-53
2023/07/29 02:05:46;;;;;;;2.60;1.73;;;21.30;74.70;;;;;;10365567;28;20485;-52
2023/07/29 02:10:48;;;;;;;1.92;1.40;;;21.30;74.50;;;;;;10347483;28;20034;-53
2023/07/29 02:15:49;;;;;;;3.28;1.88;;;21.30;74.40;;;;;;10344278;28;20113;-54
2023/07/29 02:20:49;;;;;;;2.67;1.60;;;21.40;74.40;;;;;;10364655;28;20017;-54
2023/07/29 02:25:50;;;;;;;2.22;1.60;;;21.30;74.40;;;;;;10364623;28;20057;-54
2023/07/29 02:31:17;;;;;;;3.00;2.28;;;21.30;74.70;;;;;;10364753;28;20017;-54
2023/07/29 02:36:18;;;;;;;2.80;1.92;;;21.30;74.80;;;;;;10364967;28;20042;-54
2023/07/29 02:41:19;;;;;;;3.25;2.70;;;21.30;74.80;;;;;;10365118;28;20161;-54
2023/07/29 02:46:20;;;;;;;2.92;2.00;;;21.30;74.80;;;;;;10363850;28;20489;-52
2023/07/29 02:51:20;;;;;;;2.60;1.70;;;21.30;74.80;;;;;;10333553;28;20029;-52
2023/07/29 02:56:21;;;;;;;2.58;2.00;;;21.30;74.80;;;;;;10323220;28;20084;-53
2023/07/29 03:01:24;;;;;;;3.47;2.42;;;21.30;74.80;;;;;;10323920;28;20025;-53
2023/07/29 03:06:25;;;;;;;2.78;1.92;;;21.30;74.60;;;;;;10323120;28;20535;-52
2023/07/29 03:11:26;;;;;;;2.92;2.00;;;21.30;74.70;;;;;;10336379;28;20026;-52
2023/07/29 03:16:26;;;;;;;2.47;1.90;;;21.30;74.70;;;;;;10347069;28;20034;-53
2023/07/29 03:21:27;;;;;;;3.38;2.00;;;21.30;74.50;;;;;;10363350;28;20754;-53
2023/07/29 03:26:28;;;;;;;2.78;2.05;;;21.30;74.50;;;;;;10363588;28;20029;-52
2023/07/29 03:31:28;;;;;;;2.35;1.75;;;21.30;74.50;;;;;;10363544;28;20595;-54
2023/07/29 03:36:29;;;;;;;2.50;1.95;;;21.30;74.70;;;;;;10363003;28;20073;-52
2023/07/29 03:41:30;;;;;;;2.83;2.28;;;21.30;74.60;;;;;;10363482;28;20052;-53
2023/07/29 03:46:31;;;;;;;2.40;1.80;;;21.20;74.30;;;;;;10363311;28;20030;-54
2023/07/29 03:51:32;;;;;;;2.95;1.88;;;21.30;74.40;;;;;;10362362;28;20180;-53
2023/07/29 03:56:35;;;;;;;3.00;1.90;;;21.30;74.50;;;;;;10360635;28;20608;-51
2023/07/29 04:01:35;;;;;;;2.08;1.52;;;21.30;74.50;;;;;;10367465;28;20700;-53
2023/07/29 04:06:36;;;;;;;3.65;2.40;;;21.20;74.40;;;;;;10369878;28;20156;-52
2023/07/29 04:11:37;;;;;;;2.70;1.70;;;21.30;74.60;;;;;;10345306;28;20378;-53
2023/07/29 04:16:37;;;;;;;4.05;2.40;;;21.20;74.40;;;;;;10355368;28;20038;-53
2023/07/29 04:21:38;;;;;;;3.03;1.90;;;21.20;74.30;;;;;;10370007;28;20626;-53
2023/07/29 04:26:39;;;;;;;2.63;1.73;;;21.20;74.30;;;;;;10366331;28;20108;-53
2023/07/29 04:31:40;;;;;;;3.17;1.80;;;21.20;74.80;;;;;;10361128;28;20889;-52
2023/07/29 04:36:41;;;;;;;2.75;2.35;;;21.20;74.90;;;;;;10365665;28;20155;-53
2023/07/29 04:41:41;;;;;;;2.83;1.50;;;21.20;74.20;;;;;;10362703;28;20069;-53
2023/07/29 04:46:42;;;;;;;2.33;1.73;;;21.20;74.20;;;;;;10363150;28;20429;-53
2023/07/29 04:51:43;;;;;;;2.08;1.55;;;21.20;74.20;;;;;;10365039;28;20138;-52
2023/07/29 04:56:43;;;;;;;2.63;1.80;;;21.20;74.10;;;;;;10360568;28;20101;-52
2023/07/29 05:01:44;;;;;;;2.40;1.80;;;21.20;74.00;;;;;;10381114;28;20081;-54
2023/07/29 05:06:45;;;;;;;2.33;1.48;;;21.20;74.00;;;;;;10362026;28;20018;-53
2023/07/29 05:11:45;;;;;;;2.42;2.22;;;21.20;73.90;;;;;;10360300;28;20032;-54
2023/07/29 05:16:47;;;;;;;2.00;1.48;;;21.20;73.90;;;;;;10352920;28;20026;-53
2023/07/29 05:21:48;;;;;;;2.47;1.40;;;21.20;73.90;;;;;;10349993;28;20393;-53
2023/07/29 05:26:49;;;;;;;2.85;1.60;;;21.20;73.80;;;;;;10352624;28;20057;-53
2023/07/29 05:31:49;;;;;;;2.78;1.98;;;21.20;73.90;;;;;;10357062;28;20113;-54
2023/07/29 05:36:50;;;;;;;21.73;2.60;;;21.20;74.20;;;;;;10325444;28;20034;-52
2023/07/29 05:41:51;;;;;;;6.63;2.63;;;21.20;74.40;;;;;;10337374;28;20117;-53
2023/07/29 05:46:51;;;;;;;4.20;1.73;;;21.30;74.30;;;;;;10340744;28;20065;-53
2023/07/29 05:51:53;;;;;;;9.77;2.20;;;21.50;74.20;;;;;;10343760;28;20026;-54
2023/07/29 05:56:53;;;;;;;8.30;1.85;;;21.60;74.40;;;;;;10342345;28;20031;-52
2023/07/29 06:01:54;;;;;;;10.75;2.97;;;21.60;74.20;;;;;;10331485;28;20018;-57
2023/07/29 06:06:55;;;;;;;9.77;2.47;;;21.70;74.10;;;;;;10326795;28;20810;-53
2023/07/29 06:11:56;;;;;;;6.60;2.30;;;21.60;73.90;;;;;;10363509;28;20371;-54
2023/07/29 06:16:57;;;;;;;7.65;2.08;;;21.50;73.80;;;;;;10353906;28;20025;-54
2023/07/29 06:21:57;;;;;;;6.63;1.90;;;21.40;73.70;;;;;;10360056;28;20558;-54
2023/07/29 06:26:58;;;;;;;8.75;2.42;;;21.40;73.70;;;;;;10363044;28;21059;-54
2023/07/29 06:31:59;;;;;;;7.38;2.53;;;21.30;74.00;;;;;;10363746;28;20083;-54
2023/07/29 06:36:59;;;;;;;9.07;2.10;;;21.40;73.90;;;;;;10344837;28;20088;-54
2023/07/29 06:42:00;;;;;;;8.30;2.72;;;21.30;73.90;;;;;;10352298;28;20121;-53
2023/07/29 06:47:01;;;;;;;7.32;1.95;;;21.30;73.90;;;;;;10361314;28;20156;-54
2023/07/29 06:52:01;;;;;;;7.35;2.20;;;21.40;73.90;;;;;;10362605;28;20032;-53
2023/07/29 06:57:02;;;;;;;5.43;2.08;;;21.40;73.90;;;;;;10356207;28;20125;-53
2023/07/29 07:02:03;;;;;;;11.30;3.38;;;21.40;74.00;;;;;;10340271;28;20026;-53
2023/07/29 07:07:04;;;;;;;8.23;2.75;;;21.40;73.90;;;;;;10324980;28;20169;-54
2023/07/29 07:12:06;;;;;;;4.95;2.67;;;21.30;73.70;;;;;;10335899;28;20022;-52
2023/07/29 07:17:06;;;;;;;8.95;3.13;;;21.40;73.60;;;;;;10354061;28;20034;-53
2023/07/29 07:22:07;;;;;;;7.53;2.63;;;21.40;73.70;;;;;;10360211;28;20018;-51
2023/07/29 07:27:08;;;;;;;7.78;2.47;;;21.40;73.70;;;;;;10349363;28;20041;-54
2023/07/29 07:32:08;;;;;;;6.32;2.92;;;21.40;73.70;;;;;;10364330;28;20049;-53
2023/07/29 07:37:09;;;;;;;5.47;2.30;;;21.40;73.80;;;;;;10371675;28;20032;-54
2023/07/29 07:42:10;;;;;;;7.50;2.40;;;21.40;73.80;;;;;;10371874;28;20124;-55
2023/07/29 07:47:10;;;;;;;4.82;2.10;;;21.40;74.00;;;;;;10366158;28;20453;-54
2023/07/29 07:52:11;;;;;;;2.67;1.30;;;21.70;73.00;;;;;;10367549;28;20463;-55
2023/07/29 07:57:12;;;;;;;6.13;2.20;;;21.90;72.10;;;;;;10369787;28;20118;-53
2023/07/29 08:02:13;;;;;;;7.32;2.47;;;21.80;73.20;;;;;;10340921;28;20149;-56
2023/07/29 08:07:14;;;;;;;4.75;2.72;;;21.70;73.80;;;;;;10357007;28;20026;-54
2023/07/29 08:12:14;;;;;;;6.80;2.80;;;21.60;75.00;;;;;;10353764;28;20780;-55
2023/07/29 08:17:15;;;;;;;6.03;3.10;;;21.60;75.40;;;;;;10340435;28;20057;-55
2023/07/29 08:22:17;;;;;;;4.13;2.63;;;21.50;76.10;;;;;;10360937;28;20465;-54
2023/07/29 08:27:17;;;;;;;4.50;2.30;;;21.50;75.70;;;;;;10336991;28;20014;-54
2023/07/29 08:32:18;;;;;;;4.03;2.05;;;21.50;75.10;;;;;;10340359;28;20107;-55
2023/07/29 08:37:18;;;;;;;6.32;2.80;;;21.50;76.20;;;;;;10369426;28;20108;-54
2023/07/29 08:42:20;;;;;;;5.63;2.40;;;21.50;76.00;;;;;;10368186;28;20469;-55
2023/07/29 08:47:21;;;;;;;3.17;2.22;;;21.50;76.30;;;;;;10367164;28;20041;-54
2023/07/29 08:52:24;;;;;;;5.75;2.55;;;21.50;76.00;;;;;;10368962;28;20057;-53
2023/07/29 08:57:26;;;;;;;5.68;2.30;;;21.40;76.10;;;;;;10384283;28;20025;-54
2023/07/29 09:02:27;;;;;;;3.65;2.60;;;21.40;75.70;;;;;;10368797;28;20053;-54
2023/07/29 09:07:29;;;;;;;6.53;2.85;;;21.40;75.70;;;;;;10368495;28;20098;-54
2023/07/29 09:12:29;;;;;;;6.47;2.80;;;21.40;75.70;;;;;;10336622;28;20113;-54
2023/07/29 09:17:34;;;;;;;5.57;3.22;;;21.40;76.00;;;;;;10310365;28;20422;-56
2023/07/29 09:22:35;;;;;;;6.50;2.90;;;21.40;76.00;;;;;;10327414;28;20042;-55
2023/07/29 09:27:39;;;;;;;6.30;2.67;;;21.50;75.70;;;;;;10325893;28;20033;-54
2023/07/29 09:32:41;;;;;;;9.18;3.30;;;21.50;75.60;;;;;;10327134;28;20018;-55
2023/07/29 09:37:43;;;;;;;18.90;4.13;;;21.50;75.80;;;;;;10326922;28;20751;-54
2023/07/29 09:42:55;;;;;;;16.05;4.90;;;21.60;75.40;;;;;;10325045;28;20781;-53
2023/07/29 09:47:58;;;;;;;18.67;4.45;;;21.60;75.40;;;;;;10326906;28;20026;-54
2023/07/29 09:52:59;;;;;;;8.13;3.10;;;21.70;75.60;;;;;;10336187;28;20079;-52
2023/07/29 09:58:03;;;;;;;16.02;4.00;;;21.80;75.30;;;;;;10365227;28;20036;-54
2023/07/29 10:03:04;;;;;;;14.15;4.75;;;21.90;74.70;;;;;;10361328;28;20033;-53
2023/07/29 10:08:05;;;;;;;14.63;3.63;;;21.90;74.90;;;;;;10358882;28;20357;-55
2023/07/29 10:13:06;;;;;;;11.27;4.00;;;21.90;74.70;;;;;;10344014;28;20031;-52
2023/07/29 10:18:07;;;;;;;15.00;3.00;;;21.80;74.70;;;;;;10361425;28;20033;-55
2023/07/29 10:23:10;;;;;;;13.35;4.25;;;21.80;74.60;;;;;;10365347;28;20376;-52
2023/07/29 10:28:12;;;;;;;9.52;3.78;;;21.70;74.50;;;;;;10364569;28;20030;-52
2023/07/29 10:33:13;;;;;;;6.18;2.53;;;21.70;74.30;;;;;;10362200;28;20030;-51
2023/07/29 10:38:15;;;;;;;9.38;2.85;;;21.80;74.40;;;;;;10362092;28;20389;-53
2023/07/29 10:43:29;;;;;;;7.25;2.90;;;21.90;74.40;;;;;;10360986;28;20112;-55
2023/07/29 10:48:33;;;;;;;6.70;2.28;;;21.80;74.30;;;;;;10364115;28;20524;-55
2023/07/29 10:53:33;;;;;;;6.60;2.60;;;21.70;74.10;;;;;;10351194;28;20053;-55
2023/07/29 10:58:34;;;;;;;5.85;2.67;;;21.70;74.60;;;;;;10364377;28;20096;-54
2023/07/29 11:03:35;;;;;;;6.03;2.80;;;21.70;74.10;;;;;;10364071;28;20080;-54
2023/07/29 11:08:35;;;;;;;4.93;2.47;;;21.70;74.30;;;;;;10360429;28;20117;-54
2023/07/29 11:13:38;;;;;;;3.97;2.42;;;21.60;74.80;;;;;;10361420;28;20025;-56
2023/07/29 11:18:39;;;;;;;4.22;2.08;;;21.60;74.60;;;;;;10322421;28;20038;-53
2023/07/29 11:23:40;;;;;;;4.07;2.53;;;21.60;74.50;;;;;;10352240;28;20037;-53
2023/07/29 11:28:41;;;;;;;4.50;1.85;;;21.60;74.60;;;;;;10362173;28;20089;-53
2023/07/29 11:33:41;;;;;;;16.10;3.47;;;21.60;74.80;;;;;;10362610;28;20117;-52
2023/07/29 11:38:42;;;;;;;18.75;4.25;;;21.60;74.50;;;;;;10362093;28;20018;-55
2023/07/29 11:43:43;;;;;;;21.25;4.22;;;21.70;75.30;;;;;;10363582;28;20525;-56
2023/07/29 11:48:45;;;;;;;16.02;4.43;;;21.80;74.50;;;;;;10360633;28;20030;-55
2023/07/29 11:53:45;;;;;;;18.42;4.60;;;21.80;74.60;;;;;;10349876;28;20040;-52
2023/07/29 11:58:47;;;;;;;10.30;4.20;;;21.60;74.80;;;;;;10321010;28;20025;-52
2023/07/29 12:03:50;;;;;;;9.02;3.30;;;21.50;74.80;;;;;;10319191;28;20023;-53
2023/07/29 12:08:51;;;;;;;9.40;3.88;;;21.60;75.00;;;;;;10332919;28;20026;-52
2023/07/29 12:13:54;;;;;;;7.00;3.25;;;21.50;74.80;;;;;;10323969;28;20068;-53
2023/07/29 12:18:54;;;;;;;8.27;3.92;;;21.50;74.80;;;;;;10361047;28;20249;-51
2023/07/29 12:23:56;;;;;;;6.35;2.72;;;21.50;74.80;;;;;;10367442;28;20061;-53
2023/07/29 12:28:57;;;;;;;9.45;3.13;;;21.60;74.90;;;;;;10368457;28;20037;-52
2023/07/29 12:33:57;;;;;;;7.80;3.45;;;21.60;74.90;;;;;;10367861;28;20599;-53
2023/07/29 12:39:01;;;;;;;4.63;3.00;;;21.60;74.90;;;;;;10367483;28;20252;-52
2023/07/29 12:44:02;;;;;;;14.98;2.83;;;21.60;74.90;;;;;;10366858;28;20034;-52
2023/07/29 12:49:02;;;;;;;4.53;2.67;;;21.60;74.80;;;;;;10366957;28;20109;-54
2023/07/29 12:54:04;;;;;;;8.32;3.85;;;21.60;74.80;;;;;;10366940;28;20045;-53
2023/07/29 12:59:05;;;;;;;6.00;2.72;;;21.60;74.80;;;;;;10366361;28;20018;-51
2023/07/29 13:04:06;;;;;;;7.07;3.25;;;21.60;74.50;;;;;;10366650;28;20029;-53
2023/07/29 13:09:07;;;;;;;4.30;2.60;;;21.60;74.50;;;;;;10362276;28;20541;-53
2023/07/29 13:14:08;;;;;;;8.48;2.50;;;21.60;74.40;;;;;;10331153;28;20028;-53
2023/07/29 13:19:08;;;;;;;7.60;2.83;;;21.60;74.30;;;;;;10366116;28;20024;-53
2023/07/29 13:24:09;;;;;;;4.57;2.63;;;21.70;74.60;;;;;;10365967;28;20057;-53
2023/07/29 13:29:10;;;;;;;5.90;3.00;;;21.70;74.70;;;;;;10365381;28;20056;-53
2023/07/29 13:34:10;;;;;;;4.07;2.28;;;21.60;74.70;;;;;;10364654;28;20439;-52
2023/07/29 13:39:11;;;;;;;9.15;4.07;;;21.60;74.70;;;;;;10365063;28;20440;-52
2023/07/29 13:44:12;;;;;;;4.32;2.42;;;21.60;74.60;;;;;;10363630;28;20600;-51
2023/07/29 13:49:12;;;;;;;4.53;2.25;;;21.60;74.40;;;;;;10364754;28;20024;-53
2023/07/29 13:54:13;;;;;;;5.57;3.00;;;21.60;74.30;;;;;;10364509;28;20104;-50
2023/07/29 13:59:13;;;;;;;5.30;2.17;;;21.70;74.30;;;;;;10364665;28;20018;-52
2023/07/29 14:04:14;;;;;;;4.10;2.00;;;21.70;74.30;;;;;;10363959;28;20119;-53
2023/07/29 14:09:15;;;;;;;8.57;3.40;;;21.70;74.20;;;;;;10358545;28;20134;-53
2023/07/29 14:14:16;;;;;;;3.97;2.03;;;21.70;74.20;;;;;;10323631;28;20034;-53
2023/07/29 14:19:16;;;;;;;4.82;2.17;;;21.70;74.20;;;;;;10323240;28;20038;-52
2023/07/29 14:24:17;;;;;;;4.10;2.47;;;21.70;74.00;;;;;;10322725;28;20031;-54
2023/07/29 14:29:17;;;;;;;4.47;2.03;;;21.70;74.20;;;;;;10322756;28;20533;-53
2023/07/29 14:34:18;;;;;;;4.28;1.70;;;21.70;74.40;;;;;;10322398;28;20038;-53
2023/07/29 14:39:19;;;;;;;3.70;2.58;;;21.70;74.20;;;;;;10361366;28;20046;-53
2023/07/29 14:44:19;;;;;;;4.35;2.00;;;21.70;74.20;;;;;;10362011;28;20018;-53
2023/07/29 14:49:20;;;;;;;3.80;1.75;;;21.70;74.30;;;;;;10362923;28;20521;-54
2023/07/29 14:54:21;;;;;;;4.22;2.20;;;21.70;74.50;;;;;;10334624;28;20247;-52
2023/07/29 14:59:22;;;;;;;3.72;2.08;;;21.70;74.30;;;;;;10335709;28;20052;-54
2023/07/29 15:04:22;;;;;;;5.18;2.25;;;21.70;74.50;;;;;;10343989;28;20102;-53
2023/07/29 15:09:23;;;;;;;6.10;3.08;;;21.70;74.40;;;;;;10337178;28;20022;-53
2023/07/29 15:14:24;;;;;;;4.05;2.05;;;21.70;74.40;;;;;;10329717;28;20060;-52
2023/07/29 15:19:24;;;;;;;3.85;2.30;;;21.80;74.50;;;;;;10323981;28;20026;-53
2023/07/29 15:24:25;;;;;;;2.85;1.98;;;21.70;74.00;;;;;;10357585;28;20069;-53
2023/07/29 15:29:26;;;;;;;3.50;2.05;;;21.80;74.20;;;;;;10359037;28;20049;-54
2023/07/29 15:34:31;;;;;;;2.78;2.03;;;21.80;74.20;;;;;;10337231;28;20409;-52
2023/07/29 15:39:32;;;;;;;2.63;1.75;;;21.80;74.20;;;;;;10338629;28;20054;-54
2023/07/29 15:44:32;;;;;;;6.05;2.72;;;21.80;74.20;;;;;;10361873;28;20897;-52
2023/07/29 15:49:33;;;;;;;3.97;1.80;;;21.70;74.20;;;;;;10309775;28;20037;-53
2023/07/29 15:54:34;;;;;;;3.58;2.60;;;21.80;74.40;;;;;;10362746;28;20034;-55
2023/07/29 15:59:34;;;;;;;7.28;3.03;;;22.00;73.50;;;;;;10369461;28;20025;-53
2023/07/29 16:04:35;;;;;;;6.13;4.18;;;22.20;73.50;;;;;;10365905;28;20050;-54
2023/07/29 16:09:36;;;;;;;14.43;3.75;;;22.20;73.30;;;;;;10360874;28;20129;-55
2023/07/29 16:14:37;;;;;;;4.85;3.72;;;22.20;73.30;;;;;;10363863;28;20507;-55
2023/07/29 16:19:54;;;;;;;6.20;3.85;;;22.10;73.20;;;;;;10367408;28;20220;-56
2023/07/29 16:24:55;;;;;;;9.55;3.35;;;22.10;73.00;;;;;;10369543;28;20527;-55
2023/07/29 16:29:56;;;;;;;7.13;3.42;;;22.20;73.40;;;;;;10368528;28;20030;-55
2023/07/29 16:34:56;;;;;;;7.05;3.15;;;22.30;75.10;;;;;;10366492;28;20070;-54
2023/07/29 16:39:57;;;;;;;9.15;4.18;;;22.40;74.00;;;;;;10328015;28;20125;-54
2023/07/29 16:44:58;;;;;;;8.15;3.92;;;22.50;74.10;;;;;;10329626;28;20124;-55
2023/07/29 16:49:59;;;;;;;6.57;3.95;;;22.40;73.80;;;;;;10368572;28;20088;-56
2023/07/29 16:55:00;;;;;;;30.70;10.02;;;22.50;73.70;;;;;;10368938;28;20028;-54
2023/07/29 17:00:01;;;;;;;13.77;6.75;;;22.50;74.60;;;;;;10383877;28;20025;-56
2023/07/29 17:05:04;;;;;;;18.30;6.40;;;22.50;74.40;;;;;;10367608;28;20033;-56
2023/07/29 17:10:05;;;;;;;10.88;5.35;;;22.50;75.00;;;;;;10366126;28;20018;-53
2023/07/29 17:15:08;;;;;;;12.77;4.75;;;22.40;74.80;;;;;;10354941;28;20546;-53
2023/07/29 17:20:09;;;;;;;12.27;4.95;;;22.30;74.90;;;;;;10342558;28;20377;-54
2023/07/29 17:25:10;;;;;;;11.93;5.18;;;22.30;74.60;;;;;;10327240;28;20109;-54
2023/07/29 17:30:11;;;;;;;11.50;5.05;;;22.20;74.80;;;;;;10327824;28;20033;-54
2023/07/29 17:35:13;;;;;;;7.97;4.22;;;22.20;74.90;;;;;;10326985;28;20108;-54
2023/07/29 17:40:15;;;;;;;7.97;4.80;;;22.20;75.00;;;;;;10366537;28;20057;-54
2023/07/29 17:45:16;;;;;;;9.82;5.03;;;22.20;75.00;;;;;;10363757;28;20037;-53
2023/07/29 17:50:16;;;;;;;10.10;4.32;;;22.20;74.90;;;;;;10365641;28;20029;-54
2023/07/29 17:55:17;;;;;;;10.45;4.70;;;22.10;75.00;;;;;;10366623;28;20120;-55
2023/07/29 18:00:18;;;;;;;6.95;3.92;;;22.10;75.20;;;;;;10366592;28;20018;-55
2023/07/29 18:05:18;;;;;;;9.80;4.13;;;22.10;75.20;;;;;;10366599;28;20058;-56
2023/07/29 18:10:19;;;;;;;9.82;4.32;;;22.10;75.30;;;;;;10364198;28;20105;-57
2023/07/29 18:15:20;;;;;;;10.18;4.28;;;22.10;75.40;;;;;;10361292;28;20156;-53
2023/07/29 18:20:20;;;;;;;9.50;4.30;;;22.10;75.50;;;;;;10347666;28;20156;-54
2023/07/29 18:25:21;;;;;;;6.90;3.47;;;22.10;75.60;;;;;;10360339;28;20037;-54
2023/07/29 18:30:22;;;;;;;9.85;4.18;;;22.10;75.60;;;;;;10363056;28;20030;-55
2023/07/29 18:35:22;;;;;;;8.10;3.80;;;22.20;75.70;;;;;;10352458;28;20038;-55
2023/07/29 18:40:24;;;;;;;12.88;3.78;;;22.10;75.50;;;;;;10341211;28;20037;-53
2023/07/29 18:45:24;;;;;;;10.10;4.35;;;22.00;75.80;;;;;;10350024;28;20057;-54
2023/07/29 18:50:25;;;;;;;12.07;4.63;;;22.00;75.90;;;;;;10339173;28;20132;-53
2023/07/29 18:55:28;;;;;;;11.00;3.90;;;22.00;76.00;;;;;;10339262;28;20129;-53
2023/07/29 19:00:31;;;;;;;11.18;4.05;;;22.00;75.90;;;;;;10338776;28;20528;-54
2023/07/29 19:05:32;;;;;;;6.13;4.22;;;22.00;76.00;;;;;;10328610;28;20122;-53
2023/07/29 19:10:32;;;;;;;11.40;3.70;;;22.00;76.00;;;;;;10359158;28;20022;-53
2023/07/29 19:15:33;;;;;;;7.30;4.38;;;22.00;76.00;;;;;;10357436;28;20066;-53
2023/07/29 19:20:34;;;;;;;6.50;3.63;;;22.00;76.00;;;;;;10349023;28;20105;-53
2023/07/29 19:25:34;;;;;;;9.55;4.03;;;22.00;75.90;;;;;;10343553;28;20662;-52
2023/07/29 19:30:35;;;;;;;8.73;4.35;;;22.00;75.80;;;;;;10342541;28;20105;-53
2023/07/29 19:35:36;;;;;;;9.02;4.32;;;22.00;75.80;;;;;;10351533;28;21185;-53
2023/07/29 19:40:37;;;;;;;7.68;3.13;;;22.00;75.60;;;;;;10370256;28;20046;-53
2023/07/29 19:45:37;;;;;;;7.13;3.15;;;22.00;75.50;;;;;;10366058;28;20022;-54
2023/07/29 19:50:38;;;;;;;7.05;3.40;;;21.90;75.50;;;;;;10367369;28;20049;-52
2023/07/29 19:55:39;;;;;;;7.15;2.97;;;21.90;75.50;;;;;;10361521;28;20026;-53
2023/07/29 20:00:39;;;;;;;4.75;3.08;;;21.90;75.40;;;;;;10378401;28;20022;-53
2023/07/29 20:05:41;;;;;;;6.03;2.85;;;21.90;75.40;;;;;;10363367;28;20033;-54
2023/07/29 20:10:43;;;;;;;4.97;3.00;;;21.80;75.30;;;;;;10352272;28;20029;-53
2023/07/29 20:15:44;;;;;;;5.32;3.70;;;21.80;75.30;;;;;;10362920;28;20509;-53
2023/07/29 20:20:46;;;;;;;7.18;3.83;;;21.80;75.20;;;;;;10369558;28;20022;-52
2023/07/29 20:25:49;;;;;;;6.13;3.88;;;21.80;75.10;;;;;;10369592;28;20517;-53
2023/07/29 20:30:58;;;;;;;6.70;3.10;;;21.80;75.00;;;;;;10369651;28;20014;-54
2023/07/29 20:35:59;;;;;;;6.37;3.33;;;21.80;75.00;;;;;;10369971;28;20125;-53
2023/07/29 20:41:00;;;;;;;5.15;3.38;;;21.70;74.80;;;;;;10342027;28;20042;-52
2023/07/29 20:46:00;;;;;;;8.85;3.88;;;21.70;74.70;;;;;;10329421;28;20023;-53
2023/07/29 20:51:01;;;;;;;6.25;3.25;;;21.70;74.60;;;;;;10328453;28;20117;-53
2023/07/29 20:56:02;;;;;;;4.90;3.22;;;21.70;74.40;;;;;;10328108;28;20137;-52
2023/07/29 21:01:03;;;;;;;8.68;3.53;;;21.70;74.30;;;;;;10327754;28;20018;-53
2023/07/29 21:06:04;;;;;;;5.82;4.50;;;21.70;74.30;;;;;;10328134;28;20381;-52
2023/07/29 21:11:05;;;;;;;4.70;3.40;;;21.70;74.20;;;;;;10339611;28;20030;-53
2023/07/29 21:16:06;;;;;;;4.30;3.03;;;21.70;74.10;;;;;;10348896;28;20456;-52
2023/07/29 21:21:06;;;;;;;4.18;2.90;;;21.70;74.00;;;;;;10368198;28;20018;-54
2023/07/29 21:26:07;;;;;;;5.60;3.15;;;21.70;73.90;;;;;;10367621;28;20124;-53
2023/07/29 21:31:08;;;;;;;7.18;3.20;;;21.60;73.80;;;;;;10382327;28;20022;-54
2023/07/29 21:36:08;;;;;;;7.28;3.83;;;21.60;74.30;;;;;;10367013;28;20073;-54
2023/07/29 21:41:09;;;;;;;7.10;3.67;;;21.60;73.60;;;;;;10366509;28;20116;-53
2023/07/29 21:46:10;;;;;;;5.10;3.30;;;21.60;73.60;;;;;;10366565;28;20484;-54
2023/07/29 21:51:11;;;;;;;5.97;3.00;;;21.60;73.40;;;;;;10366217;28;20167;-54
2023/07/29 21:56:11;;;;;;;4.40;2.95;;;21.60;73.50;;;;;;10365714;28;20060;-53
2023/07/29 22:01:12;;;;;;;3.58;2.95;;;21.60;73.50;;;;;;10364855;28;20096;-53
2023/07/29 22:06:13;;;;;;;5.28;2.92;;;21.60;73.50;;;;;;10366004;28;20121;-53
2023/07/29 22:11:13;;;;;;;4.82;2.58;;;21.60;73.40;;;;;;10360108;28;20026;-53
2023/07/29 22:16:14;;;;;;;4.50;2.67;;;21.60;73.60;;;;;;10347203;28;20520;-53
2023/07/29 22:21:15;;;;;;;4.18;2.85;;;21.60;73.60;;;;;;10365771;28;20025;-52
2023/07/29 22:26:16;;;;;;;4.97;3.38;;;21.60;73.50;;;;;;10365477;28;20022;-53
2023/07/29 22:31:17;;;;;;;4.80;2.80;;;21.60;73.50;;;;;;10364055;28;20072;-53
2023/07/29 22:36:17;;;;;;;4.72;2.97;;;21.60;74.00;;;;;;10364642;28;20092;-53
2023/07/29 22:41:18;;;;;;;5.40;2.67;;;21.50;73.20;;;;;;10364105;28;20141;-53
2023/07/29 22:46:19;;;;;;;4.57;2.60;;;21.50;73.00;;;;;;10364478;28;20117;-54
2023/07/29 22:51:19;;;;;;;4.78;2.20;;;21.50;72.90;;;;;;10364519;28;20026;-53
2023/07/29 22:56:20;;;;;;;5.57;2.40;;;21.50;72.80;;;;;;10364684;28;20036;-53
2023/07/29 23:01:21;;;;;;;5.22;2.92;;;21.50;72.80;;;;;;10331225;28;20085;-53
2023/07/29 23:06:21;;;;;;;6.25;3.13;;;21.50;72.80;;;;;;10323071;28;20029;-53
2023/07/29 23:11:22;;;;;;;5.40;2.95;;;21.50;72.70;;;;;;10336224;28;20607;-53
2023/07/29 23:16:23;;;;;;;3.40;2.25;;;21.50;72.60;;;;;;10347375;28;20117;-53
2023/07/29 23:21:23;;;;;;;5.15;2.53;;;21.50;72.50;;;;;;10364093;28;20508;-52
2023/07/29 23:26:24;;;;;;;5.75;2.30;;;21.50;72.40;;;;;;10363617;28;20592;-53
2023/07/29 23:31:24;;;;;;;3.75;2.60;;;21.50;72.50;;;;;;10363787;28;20104;-53
2023/07/29 23:36:25;;;;;;;4.63;2.45;;;21.50;72.40;;;;;;10364094;28;20117;-53
2023/07/29 23:41:26;;;;;;;5.70;2.50;;;21.50;72.40;;;;;;10362247;28;20164;-53
2023/07/29 23:46:27;;;;;;;3.80;2.38;;;21.40;72.30;;;;;;10363369;28;20060;-53
2023/07/29 23:51:27;;;;;;;4.50;3.55;;;21.50;72.40;;;;;;10363373;28;20157;-53
2023/07/29 23:56:28;;;;;;;3.97;2.45;;;21.50;72.40;;;;;;10363103;28;20121;-53
